createdAt,value
2017-09-07T00:00:54.012Z,101027
2017-09-07T00:03:22.551Z,101028
2017-09-07T00:05:50.897Z,101027
2017-09-07T00:08:23.414Z,101020
2017-09-07T00:10:53.119Z,101022
2017-09-07T00:13:21.436Z,101021
2017-09-07T00:15:49.828Z,101028
2017-09-07T00:18:17.933Z,101025
2017-09-07T00:20:46.843Z,101023
2017-09-07T00:23:14.990Z,101016
2017-09-07T00:25:43.237Z,101011
2017-09-07T00:28:11.520Z,101007
2017-09-07T00:30:39.648Z,101004
2017-09-07T00:33:07.813Z,101003
2017-09-07T00:35:35.967Z,101001
2017-09-07T00:38:05.652Z,100996
2017-09-07T00:40:33.876Z,100994
2017-09-07T00:43:03.778Z,100999
2017-09-07T00:45:31.917Z,100993
2017-09-07T00:48:02.057Z,100995
2017-09-07T00:50:33.331Z,100991
2017-09-07T00:53:01.768Z,100988
2017-09-07T00:55:31.018Z,100986
2017-09-07T00:57:59.395Z,100984
2017-09-07T01:00:28.691Z,100988
2017-09-07T01:02:57.318Z,100988
2017-09-07T01:05:29.870Z,100984
2017-09-07T01:07:57.987Z,100991
2017-09-07T01:10:30.253Z,100992
2017-09-07T01:13:03.030Z,100982
2017-09-07T01:15:32.278Z,100978
2017-09-07T01:18:00.717Z,100979
2017-09-07T01:20:32.685Z,100977
2017-09-07T01:23:01.292Z,100974
2017-09-07T01:25:29.974Z,100977
2017-09-07T01:27:58.864Z,100962
2017-09-07T01:30:27.757Z,100969
2017-09-07T01:32:57.833Z,100964
2017-09-07T01:35:26.161Z,100960
2017-09-07T01:37:54.503Z,100959
2017-09-07T01:40:22.620Z,100959
2017-09-07T01:42:50.755Z,100968
2017-09-07T01:45:19.133Z,100970
2017-09-07T01:47:47.454Z,100972
2017-09-07T01:50:17.531Z,100979
2017-09-07T01:52:45.659Z,100968
2017-09-07T01:55:13.784Z,100966
2017-09-07T01:57:43.717Z,100971
2017-09-07T02:00:11.801Z,100971
2017-09-07T02:02:40.479Z,100969
2017-09-07T02:05:09.180Z,100966
2017-09-07T02:07:38.316Z,100945
2017-09-07T02:10:07.545Z,100966
2017-09-07T02:12:35.676Z,100971
2017-09-07T02:15:04.940Z,100975
2017-09-07T02:17:33.341Z,100971
2017-09-07T02:20:02.473Z,100967
2017-09-07T02:22:30.683Z,100971
2017-09-07T02:24:59.622Z,100961
2017-09-07T02:27:28.583Z,100968
2017-09-07T02:29:57.173Z,100979
2017-09-07T02:32:25.339Z,100958
2017-09-07T02:34:53.516Z,100958
2017-09-07T02:37:28.878Z,100953
2017-09-07T02:39:57.329Z,100950
2017-09-07T02:42:25.797Z,100961
2017-09-07T02:44:53.989Z,100957
2017-09-07T02:47:22.109Z,100956
2017-09-07T02:49:53.392Z,100954
2017-09-07T02:52:22.861Z,100954
2017-09-07T02:54:51.007Z,100956
2017-09-07T02:57:22.634Z,100957
2017-09-07T02:59:51.016Z,100960
2017-09-07T03:02:20.039Z,100951
2017-09-07T03:04:48.164Z,100954
2017-09-07T03:07:17.826Z,100953
2017-09-07T03:09:46.335Z,100950
2017-09-07T03:12:16.130Z,100946
2017-09-07T03:14:44.684Z,100942
2017-09-07T03:17:13.571Z,100944
2017-09-07T03:19:43.646Z,100942
2017-09-07T03:22:18.642Z,100943
2017-09-07T03:24:46.761Z,100937
2017-09-07T03:27:14.873Z,100935
2017-09-07T03:29:43.131Z,100940
2017-09-07T03:32:12.092Z,100932
2017-09-07T03:34:41.060Z,100934
2017-09-07T03:37:09.201Z,100939
2017-09-07T03:39:38.216Z,100931
2017-09-07T03:42:07.256Z,100941
2017-09-07T03:44:35.658Z,100937
2017-09-07T03:47:03.804Z,100925
2017-09-07T03:49:31.955Z,100929
2017-09-07T03:52:00.337Z,100931
2017-09-07T03:54:29.249Z,100920
2017-09-07T03:56:57.376Z,100921
2017-09-07T03:59:25.487Z,100931
2017-09-07T04:01:53.584Z,100920
2017-09-07T04:04:22.751Z,100922
2017-09-07T04:06:50.932Z,100929
2017-09-07T04:09:19.028Z,100923
2017-09-07T04:11:48.825Z,100927
2017-09-07T04:14:17.164Z,100930
2017-09-07T04:16:45.289Z,100926
2017-09-07T04:19:14.180Z,100929
2017-09-07T04:21:42.301Z,100926
2017-09-07T04:24:13.796Z,100929
2017-09-07T04:26:41.938Z,100925
2017-09-07T04:29:11.457Z,100927
2017-09-07T04:31:42.980Z,100927
2017-09-07T04:34:13.343Z,100924
2017-09-07T04:36:44.964Z,100931
2017-09-07T04:39:17.440Z,100928
2017-09-07T04:41:45.610Z,100927
2017-09-07T04:44:20.775Z,100927
2017-09-07T04:46:49.256Z,100924
2017-09-07T04:49:17.899Z,100927
2017-09-07T04:51:47.985Z,100933
2017-09-07T04:54:16.375Z,100928
2017-09-07T04:56:45.248Z,100921
2017-09-07T04:59:16.268Z,100925
2017-09-07T05:01:45.352Z,100920
2017-09-07T05:04:13.756Z,100922
2017-09-07T05:06:42.301Z,100927
2017-09-07T05:09:10.534Z,100926
2017-09-07T05:11:38.631Z,100930
2017-09-07T05:14:07.282Z,100926
2017-09-07T05:16:36.940Z,100931
2017-09-07T05:19:05.294Z,100932
2017-09-07T05:21:34.679Z,100936
2017-09-07T05:24:03.564Z,100944
2017-09-07T05:26:32.607Z,100939
2017-09-07T05:29:02.064Z,100947
2017-09-07T05:31:30.641Z,100943
2017-09-07T05:33:58.863Z,100941
2017-09-07T05:36:28.958Z,100943
2017-09-07T05:38:57.092Z,100939
2017-09-07T05:41:25.406Z,100943
2017-09-07T05:43:53.677Z,100947
2017-09-07T05:46:24.518Z,100941
2017-09-07T05:48:52.885Z,100942
2017-09-07T05:51:21.004Z,100938
2017-09-07T05:53:49.368Z,100942
2017-09-07T05:56:17.496Z,100942
2017-09-07T05:58:46.207Z,100943
2017-09-07T06:01:14.392Z,100950
2017-09-07T06:03:42.738Z,100956
2017-09-07T06:06:10.836Z,100954
2017-09-07T06:08:40.618Z,100957
2017-09-07T06:11:09.672Z,100956
2017-09-07T06:13:42.017Z,100954
2017-09-07T06:16:10.248Z,100963
2017-09-07T06:18:38.365Z,100957
2017-09-07T06:21:17.104Z,100960
2017-09-07T06:23:45.911Z,100945
2017-09-07T06:26:14.177Z,100954
2017-09-07T06:28:42.276Z,100954
2017-09-07T06:31:10.398Z,100957
2017-09-07T06:33:38.511Z,100963
2017-09-07T06:36:06.900Z,100959
2017-09-07T06:38:35.107Z,100949
2017-09-07T06:41:03.266Z,100958
2017-09-07T06:43:31.398Z,100961
2017-09-07T06:45:59.512Z,100960
2017-09-07T06:48:27.595Z,100955
2017-09-07T06:50:56.470Z,100953
2017-09-07T06:53:26.212Z,100950
2017-09-07T06:55:54.315Z,100954
2017-09-07T06:58:23.413Z,100959
2017-09-07T07:00:51.517Z,100960
2017-09-07T07:03:19.853Z,100964
2017-09-07T07:05:48.926Z,100957
2017-09-07T07:08:18.216Z,100959
2017-09-07T07:10:49.299Z,100964
2017-09-07T07:13:18.353Z,100959
2017-09-07T07:15:46.809Z,100956
2017-09-07T07:18:15.031Z,100955
2017-09-07T07:20:43.201Z,100959
2017-09-07T07:23:12.105Z,100957
2017-09-07T07:25:40.542Z,100961
2017-09-07T07:28:09.486Z,100962
2017-09-07T07:30:38.560Z,100962
2017-09-07T07:33:06.691Z,100965
2017-09-07T07:35:35.627Z,100958
2017-09-07T07:38:04.392Z,100967
2017-09-07T07:40:34.657Z,100965
2017-09-07T07:43:04.146Z,100959
2017-09-07T07:45:32.281Z,100963
2017-09-07T07:48:00.486Z,100965
2017-09-07T07:50:30.885Z,100964
2017-09-07T07:52:59.110Z,100974
2017-09-07T07:55:28.129Z,100966
2017-09-07T07:57:58.953Z,100973
2017-09-07T08:00:27.921Z,100972
2017-09-07T08:02:56.244Z,100973
2017-09-07T08:05:25.145Z,100980
2017-09-07T08:07:53.336Z,100971
2017-09-07T08:10:22.269Z,100976
2017-09-07T08:12:51.497Z,100975
2017-09-07T08:15:19.668Z,100972
2017-09-07T08:17:48.822Z,100975
2017-09-07T08:20:17.700Z,100977
2017-09-07T08:22:46.075Z,100974
2017-09-07T08:25:14.226Z,100979
2017-09-07T08:27:44.338Z,100966
2017-09-07T08:30:12.461Z,100989
2017-09-07T08:32:40.613Z,100966
2017-09-07T08:35:09.492Z,100968
2017-09-07T08:37:37.602Z,100966
2017-09-07T08:40:05.785Z,100961
2017-09-07T08:42:34.085Z,100963
2017-09-07T08:45:02.208Z,100957
2017-09-07T08:47:30.429Z,100962
2017-09-07T08:49:58.552Z,100963
2017-09-07T08:52:27.513Z,100955
2017-09-07T08:54:59.077Z,100956
2017-09-07T08:57:31.026Z,100953
2017-09-07T08:59:59.328Z,100953
2017-09-07T09:02:27.781Z,100948
2017-09-07T09:04:55.921Z,100949
2017-09-07T09:07:24.101Z,100955
2017-09-07T09:09:52.241Z,100960
2017-09-07T09:12:26.767Z,100957
2017-09-07T09:14:55.012Z,100956
2017-09-07T09:17:26.776Z,100952
2017-09-07T09:19:54.917Z,100949
2017-09-07T09:22:23.013Z,100951
2017-09-07T09:24:51.162Z,100952
2017-09-07T09:27:20.600Z,100949
2017-09-07T09:29:48.778Z,100947
2017-09-07T09:32:17.016Z,100948
2017-09-07T09:34:45.678Z,100939
2017-09-07T09:37:13.816Z,100935
2017-09-07T09:39:41.982Z,100938
2017-09-07T09:42:10.474Z,100935
2017-09-07T09:44:42.612Z,100931
2017-09-07T09:47:10.771Z,100941
2017-09-07T09:49:39.572Z,100921
2017-09-07T09:52:07.801Z,100928
2017-09-07T09:54:36.889Z,100930
2017-09-07T09:57:05.016Z,100925
2017-09-07T09:59:33.154Z,100925
2017-09-07T10:02:01.555Z,100921
2017-09-07T10:04:29.731Z,100914
2017-09-07T10:07:01.086Z,100926
2017-09-07T10:09:31.391Z,100921
2017-09-07T10:12:00.556Z,100919
2017-09-07T10:14:28.718Z,100915
2017-09-07T10:16:57.900Z,100908
2017-09-07T10:19:26.090Z,100908
2017-09-07T10:21:55.197Z,100907
2017-09-07T10:24:23.352Z,100901
2017-09-07T10:26:52.061Z,100903
2017-09-07T10:29:20.161Z,100899
2017-09-07T10:31:50.218Z,100889
2017-09-07T10:34:20.407Z,100890
2017-09-07T10:36:48.515Z,100881
2017-09-07T10:39:16.987Z,100877
2017-09-07T10:41:45.122Z,100882
2017-09-07T10:44:13.316Z,100871
2017-09-07T10:46:45.218Z,100870
2017-09-07T10:49:14.942Z,100867
2017-09-07T10:51:44.679Z,100868
2017-09-07T10:54:16.536Z,100863
2017-09-07T10:56:47.604Z,100862
2017-09-07T10:59:15.948Z,100867
2017-09-07T11:01:46.253Z,100860
2017-09-07T11:04:14.511Z,100868
2017-09-07T11:06:42.900Z,100861
2017-09-07T11:09:12.083Z,100865
2017-09-07T11:11:41.014Z,100855
2017-09-07T11:14:09.211Z,100859
2017-09-07T11:16:38.215Z,100859
2017-09-07T11:19:06.452Z,100855
2017-09-07T11:21:34.600Z,100848
2017-09-07T11:24:03.543Z,100856
2017-09-07T11:26:31.701Z,100839
2017-09-07T11:28:59.889Z,100856
2017-09-07T11:31:28.916Z,100852
2017-09-07T11:33:57.046Z,100854
2017-09-07T11:36:25.253Z,100864
2017-09-07T11:38:53.688Z,100862
2017-09-07T11:41:22.576Z,100858
2017-09-07T11:43:50.779Z,100854
2017-09-07T11:46:18.900Z,100853
2017-09-07T11:48:48.477Z,100853
2017-09-07T11:51:17.418Z,100855
2017-09-07T11:53:47.335Z,100847
2017-09-07T11:56:16.333Z,100836
2017-09-07T11:58:47.857Z,100839
2017-09-07T12:01:19.441Z,100843
2017-09-07T12:03:47.837Z,100834
2017-09-07T12:06:15.996Z,100827
2017-09-07T12:08:45.219Z,100821
2017-09-07T12:11:13.354Z,100817
2017-09-07T12:13:44.709Z,100832
2017-09-07T12:16:13.888Z,100836
2017-09-07T12:18:44.234Z,100830
2017-09-07T12:21:12.396Z,100829
2017-09-07T12:23:40.530Z,100827
2017-09-07T12:26:08.678Z,100819
2017-09-07T12:28:37.706Z,100819
2017-09-07T12:31:05.832Z,100817
2017-09-07T12:33:34.038Z,100818
2017-09-07T12:36:02.206Z,100820
2017-09-07T12:38:34.194Z,100806
2017-09-07T12:41:02.359Z,100819
2017-09-07T12:43:30.595Z,100820
2017-09-07T12:46:00.113Z,100818
2017-09-07T12:48:28.298Z,100816
2017-09-07T12:50:56.484Z,100820
2017-09-07T12:53:24.733Z,100815
2017-09-07T12:55:53.640Z,100807
2017-09-07T12:58:21.873Z,100808
2017-09-07T13:00:50.005Z,100800
2017-09-07T13:03:24.019Z,100797
2017-09-07T13:05:52.140Z,100795
2017-09-07T13:08:21.259Z,100787
2017-09-07T13:10:51.517Z,100778
2017-09-07T13:13:19.686Z,100777
2017-09-07T13:15:47.832Z,100780
2017-09-07T13:18:16.037Z,100788
2017-09-07T13:20:44.583Z,100778
2017-09-07T13:23:13.612Z,100780
2017-09-07T13:25:41.759Z,100774
2017-09-07T13:28:09.894Z,100775
2017-09-07T13:30:39.068Z,100759
2017-09-07T13:33:09.050Z,100760
2017-09-07T13:35:37.277Z,100759
2017-09-07T13:38:05.670Z,100759
2017-09-07T13:40:34.573Z,100757
2017-09-07T13:43:02.725Z,100747
2017-09-07T13:45:41.894Z,100757
2017-09-07T13:48:10.133Z,100754
2017-09-07T13:50:44.405Z,100751
2017-09-07T13:53:13.824Z,100758
2017-09-07T13:55:41.984Z,100756
2017-09-07T13:58:10.123Z,100750
2017-09-07T14:00:38.658Z,100761
2017-09-07T14:03:07.770Z,100745
2017-09-07T14:05:41.703Z,100745
2017-09-07T14:08:10.373Z,100753
2017-09-07T14:10:39.616Z,100753
2017-09-07T14:13:08.278Z,100748
2017-09-07T14:15:37.744Z,100740
2017-09-07T14:18:05.946Z,100745
2017-09-07T14:20:34.639Z,100745
2017-09-07T14:23:03.775Z,100739
2017-09-07T14:25:36.146Z,100741
2017-09-07T14:28:05.636Z,100741
2017-09-07T14:30:34.074Z,100731
2017-09-07T14:33:02.239Z,100736
2017-09-07T14:35:30.494Z,100733
2017-09-07T14:38:01.713Z,100731
2017-09-07T14:40:35.977Z,100738
2017-09-07T14:43:06.131Z,100731
2017-09-07T14:45:34.272Z,100737
2017-09-07T14:48:02.380Z,100736
2017-09-07T14:50:31.413Z,100736
2017-09-07T14:53:02.086Z,100729
2017-09-07T14:55:30.489Z,100745
2017-09-07T14:57:58.912Z,100740
2017-09-07T15:00:27.323Z,100737
2017-09-07T15:02:56.195Z,100740
2017-09-07T15:05:24.872Z,100733
2017-09-07T15:07:56.517Z,100731
2017-09-07T15:10:24.760Z,100738
2017-09-07T15:12:53.212Z,100736
2017-09-07T15:15:21.304Z,100730
2017-09-07T15:17:51.376Z,100730
2017-09-07T15:20:19.535Z,100724
2017-09-07T15:22:47.927Z,100730
2017-09-07T15:25:16.075Z,100736
2017-09-07T15:27:44.171Z,100732
2017-09-07T15:30:13.301Z,100734
2017-09-07T15:32:41.579Z,100730
2017-09-07T15:35:10.462Z,100733
2017-09-07T15:37:43.693Z,100762
2017-09-07T15:40:16.009Z,100721
2017-09-07T15:42:44.314Z,100711
2017-09-07T15:45:15.419Z,100707
2017-09-07T15:47:43.598Z,100713
2017-09-07T15:50:12.016Z,100711
2017-09-07T15:52:40.379Z,100704
2017-09-07T15:55:12.499Z,100567
2017-09-07T15:57:41.535Z,100698
2017-09-07T16:00:11.543Z,100696
2017-09-07T16:02:40.510Z,100699
2017-09-07T16:05:08.961Z,100702
2017-09-07T16:07:37.335Z,100712
2017-09-07T16:10:05.477Z,100706
2017-09-07T16:12:33.935Z,100703
2017-09-07T16:15:03.228Z,100697
2017-09-07T16:17:31.595Z,100708
2017-09-07T16:20:01.068Z,100688
2017-09-07T16:22:29.462Z,100681
2017-09-07T16:24:58.863Z,100680
2017-09-07T16:27:26.988Z,100688
2017-09-07T16:29:55.115Z,100683
2017-09-07T16:32:23.260Z,100690
2017-09-07T16:34:51.381Z,100692
2017-09-07T16:37:19.508Z,100688
2017-09-07T16:39:50.884Z,100700
2017-09-07T16:42:19.006Z,100707
2017-09-07T16:44:47.107Z,100710
2017-09-07T16:47:15.496Z,100703
2017-09-07T16:49:43.616Z,100705
2017-09-07T16:52:11.761Z,100706
2017-09-07T16:54:40.164Z,100714
2017-09-07T16:57:09.019Z,100710
2017-09-07T16:59:37.195Z,100711
2017-09-07T17:02:05.420Z,100704
2017-09-07T17:04:33.850Z,100694
2017-09-07T17:07:01.969Z,100693
2017-09-07T17:09:30.084Z,100698
2017-09-07T17:11:58.445Z,100691
2017-09-07T17:14:26.594Z,100698
2017-09-07T17:16:54.707Z,100694
2017-09-07T17:19:22.870Z,100695
2017-09-07T17:21:51.940Z,100690
2017-09-07T17:24:20.073Z,100688
2017-09-07T17:26:48.948Z,100694
2017-09-07T17:29:19.090Z,100686
2017-09-07T17:31:48.413Z,100681
2017-09-07T17:34:17.471Z,100677
2017-09-07T17:36:45.848Z,100678
2017-09-07T17:39:15.439Z,100679
2017-09-07T17:41:43.570Z,100687
2017-09-07T17:44:12.630Z,100678
2017-09-07T17:46:41.205Z,100680
2017-09-07T17:49:10.270Z,100681
2017-09-07T17:51:39.400Z,100680
2017-09-07T17:54:07.956Z,100673
2017-09-07T17:56:36.081Z,100689
2017-09-07T17:59:05.099Z,100686
2017-09-07T18:01:34.078Z,100677
2017-09-07T18:04:02.165Z,100684
2017-09-07T18:06:30.359Z,100678
2017-09-07T18:09:00.868Z,100682
2017-09-07T18:11:29.820Z,100661
2017-09-07T18:13:57.980Z,100684
2017-09-07T18:16:26.101Z,100688
2017-09-07T18:18:54.826Z,100693
2017-09-07T18:21:23.733Z,100680
2017-09-07T18:23:51.897Z,100690
2017-09-07T18:26:20.096Z,100694
2017-09-07T18:28:48.304Z,100684
2017-09-07T18:31:18.375Z,100698
2017-09-07T18:33:47.493Z,100693
2017-09-07T18:36:15.605Z,100688
2017-09-07T18:38:47.364Z,100702
2017-09-07T18:41:16.361Z,100697
2017-09-07T18:43:45.405Z,100700
2017-09-07T18:46:13.524Z,100696
2017-09-07T18:48:41.646Z,100695
2017-09-07T18:51:11.105Z,100689
2017-09-07T18:53:39.526Z,100693
2017-09-07T18:56:08.581Z,100685
2017-09-07T18:58:37.392Z,100691
2017-09-07T19:01:05.888Z,100693
2017-09-07T19:03:34.362Z,100696
2017-09-07T19:06:03.246Z,100701
2017-09-07T19:08:41.203Z,100690
2017-09-07T19:14:09.625Z,100684
2017-09-07T19:16:39.060Z,100687
2017-09-07T19:19:29.326Z,100684
2017-09-07T19:22:00.226Z,100689
2017-09-07T19:24:30.671Z,100690
2017-09-07T19:27:02.292Z,100681
2017-09-07T19:29:34.676Z,100690
2017-09-07T19:32:16.611Z,100677
2017-09-07T19:34:45.670Z,100671
2017-09-07T19:37:13.785Z,100671
2017-09-07T19:39:48.741Z,100668
2017-09-07T19:42:39.985Z,100666
2017-09-07T19:45:08.917Z,100656
2017-09-07T19:47:37.188Z,100661
2017-09-07T19:50:12.988Z,100667
2017-09-07T19:53:09.441Z,100664
2017-09-07T19:55:41.224Z,100661
2017-09-07T19:58:28.245Z,100669
2017-09-07T20:00:57.389Z,100656
2017-09-07T20:03:25.531Z,100655
2017-09-07T20:06:00.247Z,100650
2017-09-07T20:08:31.299Z,100649
2017-09-07T20:11:05.220Z,100648
2017-09-07T20:13:33.471Z,100634
2017-09-07T20:16:01.604Z,100626
2017-09-07T20:18:30.149Z,100619
2017-09-07T20:21:28.066Z,100616
2017-09-07T20:24:00.356Z,100618
2017-09-07T20:26:30.837Z,100626
2017-09-07T20:29:00.403Z,100615
2017-09-07T20:31:38.928Z,100619
2017-09-07T20:34:24.188Z,100616
2017-09-07T20:36:56.719Z,100618
2017-09-07T20:39:24.991Z,100602
2017-09-07T20:42:12.236Z,100610
2017-09-07T20:45:08.101Z,100613
2017-09-07T20:47:58.058Z,100605
2017-09-07T20:50:28.698Z,100608
2017-09-07T20:53:03.662Z,100604
2017-09-07T20:55:41.468Z,100607
2017-09-07T20:58:11.665Z,100593
2017-09-07T21:03:50.154Z,100588
2017-09-07T21:06:18.367Z,100583
2017-09-07T21:08:49.435Z,100593
2017-09-07T21:11:42.060Z,100582
2017-09-07T21:17:28.181Z,100563
2017-09-07T21:19:56.404Z,100562
2017-09-07T21:22:46.461Z,100562
2017-09-07T21:25:17.681Z,100560
2017-09-07T21:27:45.763Z,100559
2017-09-07T21:30:16.780Z,100556
2017-09-07T21:32:58.622Z,100549
2017-09-07T21:35:33.796Z,100547
2017-09-07T21:38:19.613Z,100538
2017-09-07T21:40:59.714Z,100540
2017-09-07T21:46:36.801Z,100521
2017-09-07T21:51:49.096Z,100522
2017-09-07T21:54:30.283Z,100520
2017-09-07T21:57:12.389Z,100524
2017-09-07T21:59:43.490Z,100532
2017-09-07T22:02:16.530Z,100516
2017-09-07T22:07:45.460Z,100508
2017-09-07T22:10:13.597Z,100518
2017-09-07T22:12:41.773Z,100507
2017-09-07T22:15:09.915Z,100504
2017-09-07T22:17:39.265Z,100491
2017-09-07T22:20:07.545Z,100497
2017-09-07T22:22:36.824Z,100494
2017-09-07T22:25:05.702Z,100497
2017-09-07T22:27:34.020Z,100483
2017-09-07T22:30:02.887Z,100475
2017-09-07T22:32:31.085Z,100467
2017-09-07T22:35:01.613Z,100469
2017-09-07T22:37:32.163Z,100467
2017-09-07T22:40:00.488Z,100468
2017-09-07T22:42:28.693Z,100463
2017-09-07T22:44:57.019Z,100472
2017-09-07T22:47:25.403Z,100477
2017-09-07T22:49:53.803Z,100470
2017-09-07T22:52:36.028Z,100542
2017-09-07T22:55:05.104Z,100463
2017-09-07T22:57:37.075Z,100443
2017-09-07T23:00:05.944Z,100437
2017-09-07T23:02:34.033Z,100435
2017-09-07T23:05:05.495Z,100422
2017-09-07T23:07:34.667Z,100418
2017-09-07T23:10:03.144Z,100420
2017-09-07T23:12:33.641Z,100420
2017-09-07T23:15:02.017Z,100412
2017-09-07T23:17:37.744Z,100406
2017-09-07T23:20:06.128Z,100400
2017-09-07T23:22:34.586Z,100405
2017-09-07T23:25:04.749Z,100408
2017-09-07T23:27:32.988Z,100392
2017-09-07T23:30:01.511Z,100407
2017-09-07T23:32:30.525Z,100398
2017-09-07T23:35:02.155Z,100395
2017-09-07T23:37:30.356Z,100395
2017-09-07T23:40:00.604Z,100391
2017-09-07T23:42:29.969Z,100390
2017-09-07T23:44:58.080Z,100392
2017-09-07T23:47:26.189Z,100387
2017-09-07T23:49:54.375Z,100390
2017-09-07T23:52:22.804Z,100382
2017-09-07T23:54:56.765Z,100379
2017-09-07T23:57:25.278Z,100378
2017-09-07T23:59:54.493Z,100366
